Terminal Aerodrome Forecast
Issued by NWS Paducah, KY

Home | Current Version | Previous Version | Text Only | Print | Product List | Glossary On
Versions: 1 2 3 4 5 6 7 8 9 10 11 12 13 14
237
FTUS43 KPAH 192320
TAFPAH
TAF
KPAH 192320Z 2000/2024 00000KT P6SM SKC
     FM201400 19008KT P6SM BKN250
     FM201800 20010KT P6SM SCT250=

USA.gov is the U.S. government's official web portal to all federal, state and local government web resources and services.